sensor_id;sensor_type;location;lat;lon;timestamp;P1;durP1;ratioP1;P2;durP2;ratioP2
23384;SDS011;11865;45.394;10.978;2024-02-14T00:00:10;26.25;;;14.95;;
23384;SDS011;11865;45.394;10.978;2024-02-14T00:02:44;30.13;;;15.65;;
23384;SDS011;11865;45.394;10.978;2024-02-14T00:05:16;29.05;;;16.77;;
23384;SDS011;11865;45.394;10.978;2024-02-14T00:07:45;35.65;;;18.77;;
23384;SDS011;11865;45.394;10.978;2024-02-14T00:10:12;28.92;;;16.02;;
23384;SDS011;11865;45.394;10.978;2024-02-14T00:12:40;29.85;;;16.52;;
23384;SDS011;11865;45.394;10.978;2024-02-14T00:15:07;32.10;;;16.65;;
23384;SDS011;11865;45.394;10.978;2024-02-14T00:17:35;40.35;;;17.15;;
23384;SDS011;11865;45.394;10.978;2024-02-14T00:20:03;29.75;;;15.95;;
23384;SDS011;11865;45.394;10.978;2024-02-14T00:22:32;38.33;;;17.08;;
23384;SDS011;11865;45.394;10.978;2024-02-14T00:25:00;30.88;;;16.67;;
23384;SDS011;11865;45.394;10.978;2024-02-14T00:27:27;31.55;;;15.00;;
23384;SDS011;11865;45.394;10.978;2024-02-14T00:29:55;26.70;;;15.57;;
23384;SDS011;11865;45.394;10.978;2024-02-14T00:32:23;31.92;;;15.77;;
23384;SDS011;11865;45.394;10.978;2024-02-14T00:34:51;28.23;;;14.77;;
23384;SDS011;11865;45.394;10.978;2024-02-14T00:37:19;25.92;;;15.25;;
23384;SDS011;11865;45.394;10.978;2024-02-14T00:39:47;22.30;;;13.73;;
23384;SDS011;11865;45.394;10.978;2024-02-14T00:42:17;27.15;;;14.98;;
23384;SDS011;11865;45.394;10.978;2024-02-14T00:44:44;25.92;;;13.77;;
23384;SDS011;11865;45.394;10.978;2024-02-14T00:47:12;29.10;;;15.40;;
23384;SDS011;11865;45.394;10.978;2024-02-14T00:49:39;24.50;;;14.10;;
23384;SDS011;11865;45.394;10.978;2024-02-14T00:52:07;30.63;;;14.38;;
23384;SDS011;11865;45.394;10.978;2024-02-14T00:54:35;29.73;;;15.77;;
23384;SDS011;11865;45.394;10.978;2024-02-14T00:57:03;26.00;;;15.43;;
23384;SDS011;11865;45.394;10.978;2024-02-14T00:59:31;27.23;;;14.60;;
23384;SDS011;11865;45.394;10.978;2024-02-14T01:01:58;23.85;;;13.63;;
23384;SDS011;11865;45.394;10.978;2024-02-14T01:04:26;27.95;;;14.40;;
23384;SDS011;11865;45.394;10.978;2024-02-14T01:06:53;24.23;;;12.52;;
23384;SDS011;11865;45.394;10.978;2024-02-14T01:09:21;21.20;;;13.05;;
23384;SDS011;11865;45.394;10.978;2024-02-14T01:11:49;29.67;;;13.73;;
23384;SDS011;11865;45.394;10.978;2024-02-14T01:14:17;24.00;;;14.07;;
23384;SDS011;11865;45.394;10.978;2024-02-14T01:16:45;23.92;;;13.75;;
23384;SDS011;11865;45.394;10.978;2024-02-14T01:19:13;25.23;;;14.25;;
23384;SDS011;11865;45.394;10.978;2024-02-14T01:21:41;21.80;;;13.05;;
23384;SDS011;11865;45.394;10.978;2024-02-14T01:24:09;23.27;;;13.25;;
23384;SDS011;11865;45.394;10.978;2024-02-14T01:26:36;23.63;;;13.13;;
23384;SDS011;11865;45.394;10.978;2024-02-14T01:29:04;22.95;;;13.48;;
23384;SDS011;11865;45.394;10.978;2024-02-14T01:31:32;21.85;;;12.15;;
23384;SDS011;11865;45.394;10.978;2024-02-14T01:34:01;19.65;;;12.38;;
23384;SDS011;11865;45.394;10.978;2024-02-14T01:36:29;25.73;;;13.43;;
23384;SDS011;11865;45.394;10.978;2024-02-14T01:38:57;26.85;;;13.00;;
23384;SDS011;11865;45.394;10.978;2024-02-14T01:41:25;29.20;;;15.50;;
23384;SDS011;11865;45.394;10.978;2024-02-14T01:43:52;28.67;;;14.93;;
23384;SDS011;11865;45.394;10.978;2024-02-14T01:46:20;27.77;;;13.65;;
23384;SDS011;11865;45.394;10.978;2024-02-14T01:48:47;21.52;;;13.30;;
23384;SDS011;11865;45.394;10.978;2024-02-14T01:51:16;26.83;;;13.35;;
23384;SDS011;11865;45.394;10.978;2024-02-14T01:53:48;20.67;;;12.20;;
23384;SDS011;11865;45.394;10.978;2024-02-14T01:56:15;20.35;;;11.32;;
23384;SDS011;11865;45.394;10.978;2024-02-14T01:58:43;18.63;;;11.63;;
23384;SDS011;11865;45.394;10.978;2024-02-14T02:01:11;20.27;;;12.10;;
23384;SDS011;11865;45.394;10.978;2024-02-14T02:03:39;25.45;;;12.50;;
23384;SDS011;11865;45.394;10.978;2024-02-14T02:06:07;25.42;;;11.85;;
23384;SDS011;11865;45.394;10.978;2024-02-14T02:08:35;19.95;;;11.60;;
23384;SDS011;11865;45.394;10.978;2024-02-14T02:11:03;18.00;;;10.73;;
23384;SDS011;11865;45.394;10.978;2024-02-14T02:13:32;23.92;;;12.25;;
23384;SDS011;11865;45.394;10.978;2024-02-14T02:15:59;22.30;;;11.77;;
23384;SDS011;11865;45.394;10.978;2024-02-14T02:18:31;19.27;;;11.32;;
23384;SDS011;11865;45.394;10.978;2024-02-14T02:20:59;19.73;;;11.75;;
23384;SDS011;11865;45.394;10.978;2024-02-14T02:23:30;21.73;;;11.90;;
23384;SDS011;11865;45.394;10.978;2024-02-14T02:25:58;24.15;;;12.13;;
23384;SDS011;11865;45.394;10.978;2024-02-14T02:28:26;24.00;;;11.60;;
23384;SDS011;11865;45.394;10.978;2024-02-14T02:30:53;26.58;;;12.55;;
23384;SDS011;11865;45.394;10.978;2024-02-14T02:33:22;19.15;;;12.35;;
23384;SDS011;11865;45.394;10.978;2024-02-14T02:35:50;24.08;;;12.32;;
23384;SDS011;11865;45.394;10.978;2024-02-14T02:38:18;23.23;;;11.93;;
23384;SDS011;11865;45.394;10.978;2024-02-14T02:40:46;20.83;;;12.35;;
23384;SDS011;11865;45.394;10.978;2024-02-14T02:43:14;21.85;;;12.45;;
23384;SDS011;11865;45.394;10.978;2024-02-14T02:45:42;19.65;;;12.10;;
23384;SDS011;11865;45.394;10.978;2024-02-14T02:48:10;24.25;;;12.60;;
23384;SDS011;11865;45.394;10.978;2024-02-14T02:50:38;18.98;;;11.23;;
23384;SDS011;11865;45.394;10.978;2024-02-14T02:53:05;18.92;;;10.88;;
23384;SDS011;11865;45.394;10.978;2024-02-14T02:55:33;18.95;;;11.85;;
23384;SDS011;11865;45.394;10.978;2024-02-14T02:58:04;22.58;;;11.18;;
23384;SDS011;11865;45.394;10.978;2024-02-14T03:00:33;19.13;;;11.43;;
23384;SDS011;11865;45.394;10.978;2024-02-14T03:03:01;30.73;;;11.48;;
23384;SDS011;11865;45.394;10.978;2024-02-14T03:05:31;23.55;;;11.27;;
23384;SDS011;11865;45.394;10.978;2024-02-14T03:08:00;20.38;;;11.00;;
23384;SDS011;11865;45.394;10.978;2024-02-14T03:10:27;20.05;;;11.52;;
23384;SDS011;11865;45.394;10.978;2024-02-14T03:12:56;21.92;;;11.10;;
23384;SDS011;11865;45.394;10.978;2024-02-14T03:15:24;18.30;;;10.90;;
23384;SDS011;11865;45.394;10.978;2024-02-14T03:17:53;21.02;;;11.23;;
23384;SDS011;11865;45.394;10.978;2024-02-14T03:20:20;21.95;;;12.00;;
23384;SDS011;11865;45.394;10.978;2024-02-14T03:22:48;20.60;;;10.88;;
23384;SDS011;11865;45.394;10.978;2024-02-14T03:25:16;22.40;;;11.35;;
23384;SDS011;11865;45.394;10.978;2024-02-14T03:27:44;19.60;;;11.40;;
23384;SDS011;11865;45.394;10.978;2024-02-14T03:30:14;24.23;;;11.50;;
23384;SDS011;11865;45.394;10.978;2024-02-14T03:32:43;21.45;;;10.40;;
23384;SDS011;11865;45.394;10.978;2024-02-14T03:35:11;26.35;;;12.00;;
23384;SDS011;11865;45.394;10.978;2024-02-14T03:37:43;21.40;;;11.30;;
23384;SDS011;11865;45.394;10.978;2024-02-14T03:40:14;16.00;;;10.13;;
23384;SDS011;11865;45.394;10.978;2024-02-14T03:42:42;20.38;;;11.15;;
23384;SDS011;11865;45.394;10.978;2024-02-14T03:45:09;20.48;;;10.90;;
23384;SDS011;11865;45.394;10.978;2024-02-14T03:47:37;25.55;;;11.73;;
23384;SDS011;11865;45.394;10.978;2024-02-14T03:50:09;19.08;;;10.38;;
23384;SDS011;11865;45.394;10.978;2024-02-14T03:52:36;19.60;;;10.88;;
23384;SDS011;11865;45.394;10.978;2024-02-14T03:55:04;25.60;;;10.90;;
23384;SDS011;11865;45.394;10.978;2024-02-14T03:57:33;22.50;;;11.30;;
23384;SDS011;11865;45.394;10.978;2024-02-14T04:00:05;21.63;;;12.25;;
23384;SDS011;11865;45.394;10.978;2024-02-14T04:02:39;22.63;;;11.43;;
23384;SDS011;11865;45.394;10.978;2024-02-14T04:05:07;17.42;;;10.50;;
23384;SDS011;11865;45.394;10.978;2024-02-14T04:07:36;18.92;;;10.88;;
23384;SDS011;11865;45.394;10.978;2024-02-14T04:10:06;22.17;;;10.82;;
23384;SDS011;11865;45.394;10.978;2024-02-14T04:12:34;19.65;;;12.02;;
23384;SDS011;11865;45.394;10.978;2024-02-14T04:15:02;27.65;;;11.70;;
23384;SDS011;11865;45.394;10.978;2024-02-14T04:17:30;25.95;;;11.98;;
23384;SDS011;11865;45.394;10.978;2024-02-14T04:19:57;31.10;;;12.27;;
23384;SDS011;11865;45.394;10.978;2024-02-14T04:22:25;27.67;;;11.70;;
23384;SDS011;11865;45.394;10.978;2024-02-14T04:24:52;24.70;;;10.95;;
23384;SDS011;11865;45.394;10.978;2024-02-14T04:27:20;26.80;;;10.90;;
23384;SDS011;11865;45.394;10.978;2024-02-14T04:29:47;22.73;;;11.88;;
23384;SDS011;11865;45.394;10.978;2024-02-14T04:32:16;24.40;;;10.77;;
23384;SDS011;11865;45.394;10.978;2024-02-14T04:34:44;21.23;;;11.35;;
23384;SDS011;11865;45.394;10.978;2024-02-14T04:37:11;21.58;;;10.70;;
23384;SDS011;11865;45.394;10.978;2024-02-14T04:39:41;22.70;;;10.48;;
23384;SDS011;11865;45.394;10.978;2024-02-14T04:42:09;25.83;;;11.60;;
23384;SDS011;11865;45.394;10.978;2024-02-14T04:44:37;23.15;;;10.05;;
23384;SDS011;11865;45.394;10.978;2024-02-14T04:47:05;20.35;;;11.10;;
23384;SDS011;11865;45.394;10.978;2024-02-14T04:49:32;20.63;;;10.60;;
23384;SDS011;11865;45.394;10.978;2024-02-14T04:52:00;22.17;;;11.07;;
23384;SDS011;11865;45.394;10.978;2024-02-14T04:54:27;20.48;;;10.07;;
23384;SDS011;11865;45.394;10.978;2024-02-14T04:56:55;22.75;;;9.88;;
23384;SDS011;11865;45.394;10.978;2024-02-14T04:59:27;20.38;;;9.27;;
23384;SDS011;11865;45.394;10.978;2024-02-14T05:01:55;25.02;;;10.82;;
23384;SDS011;11865;45.394;10.978;2024-02-14T05:04:23;19.52;;;10.00;;
23384;SDS011;11865;45.394;10.978;2024-02-14T05:06:51;17.65;;;9.63;;
23384;SDS011;11865;45.394;10.978;2024-02-14T05:09:24;19.92;;;9.48;;
23384;SDS011;11865;45.394;10.978;2024-02-14T05:11:52;17.83;;;8.57;;
23384;SDS011;11865;45.394;10.978;2024-02-14T05:14:20;15.82;;;7.95;;
23384;SDS011;11865;45.394;10.978;2024-02-14T05:16:47;19.98;;;8.77;;
23384;SDS011;11865;45.394;10.978;2024-02-14T05:19:15;21.05;;;8.65;;
23384;SDS011;11865;45.394;10.978;2024-02-14T05:21:43;18.55;;;9.00;;
23384;SDS011;11865;45.394;10.978;2024-02-14T05:24:10;18.83;;;8.68;;
23384;SDS011;11865;45.394;10.978;2024-02-14T05:26:38;14.98;;;7.60;;
23384;SDS011;11865;45.394;10.978;2024-02-14T05:29:05;13.00;;;6.90;;
23384;SDS011;11865;45.394;10.978;2024-02-14T05:31:42;18.75;;;7.70;;
23384;SDS011;11865;45.394;10.978;2024-02-14T05:34:11;13.88;;;7.80;;
23384;SDS011;11865;45.394;10.978;2024-02-14T05:36:40;17.95;;;8.73;;
23384;SDS011;11865;45.394;10.978;2024-02-14T05:39:09;17.08;;;9.10;;
23384;SDS011;11865;45.394;10.978;2024-02-14T05:41:37;15.30;;;8.43;;
23384;SDS011;11865;45.394;10.978;2024-02-14T05:44:05;17.83;;;8.95;;
23384;SDS011;11865;45.394;10.978;2024-02-14T05:46:33;21.05;;;9.05;;
23384;SDS011;11865;45.394;10.978;2024-02-14T05:49:00;11.93;;;7.32;;
23384;SDS011;11865;45.394;10.978;2024-02-14T05:51:28;16.13;;;7.93;;
23384;SDS011;11865;45.394;10.978;2024-02-14T05:53:55;16.15;;;9.30;;
23384;SDS011;11865;45.394;10.978;2024-02-14T05:56:23;17.27;;;7.88;;
23384;SDS011;11865;45.394;10.978;2024-02-14T05:58:50;14.20;;;7.85;;
23384;SDS011;11865;45.394;10.978;2024-02-14T06:01:18;16.15;;;8.90;;
23384;SDS011;11865;45.394;10.978;2024-02-14T06:03:45;28.00;;;11.15;;
23384;SDS011;11865;45.394;10.978;2024-02-14T06:06:13;18.70;;;9.52;;
23384;SDS011;11865;45.394;10.978;2024-02-14T06:08:41;17.48;;;8.82;;
23384;SDS011;11865;45.394;10.978;2024-02-14T06:11:08;18.55;;;9.77;;
23384;SDS011;11865;45.394;10.978;2024-02-14T06:13:36;23.48;;;10.73;;
23384;SDS011;11865;45.394;10.978;2024-02-14T06:16:03;16.90;;;8.07;;
23384;SDS011;11865;45.394;10.978;2024-02-14T06:18:32;18.48;;;9.18;;
23384;SDS011;11865;45.394;10.978;2024-02-14T06:21:00;16.08;;;8.32;;
23384;SDS011;11865;45.394;10.978;2024-02-14T06:23:27;16.90;;;7.57;;
23384;SDS011;11865;45.394;10.978;2024-02-14T06:25:55;12.48;;;7.70;;
23384;SDS011;11865;45.394;10.978;2024-02-14T06:28:22;18.25;;;8.60;;
23384;SDS011;11865;45.394;10.978;2024-02-14T06:30:50;19.35;;;7.40;;
23384;SDS011;11865;45.394;10.978;2024-02-14T06:33:17;21.45;;;8.52;;
23384;SDS011;11865;45.394;10.978;2024-02-14T06:35:45;20.38;;;9.73;;
23384;SDS011;11865;45.394;10.978;2024-02-14T06:38:13;19.13;;;9.07;;
23384;SDS011;11865;45.394;10.978;2024-02-14T06:40:40;24.13;;;9.48;;
23384;SDS011;11865;45.394;10.978;2024-02-14T06:43:08;18.70;;;9.65;;
23384;SDS011;11865;45.394;10.978;2024-02-14T06:45:35;21.60;;;9.55;;
23384;SDS011;11865;45.394;10.978;2024-02-14T06:48:04;16.33;;;8.85;;
23384;SDS011;11865;45.394;10.978;2024-02-14T06:50:32;20.90;;;9.65;;
23384;SDS011;11865;45.394;10.978;2024-02-14T06:52:59;19.60;;;8.52;;
23384;SDS011;11865;45.394;10.978;2024-02-14T06:55:28;22.33;;;10.07;;
23384;SDS011;11865;45.394;10.978;2024-02-14T06:58:01;17.35;;;9.38;;
23384;SDS011;11865;45.394;10.978;2024-02-14T07:00:32;20.30;;;9.52;;
23384;SDS011;11865;45.394;10.978;2024-02-14T07:03:00;18.63;;;9.35;;
23384;SDS011;11865;45.394;10.978;2024-02-14T07:05:28;22.23;;;9.13;;
23384;SDS011;11865;45.394;10.978;2024-02-14T07:07:56;21.90;;;8.88;;
23384;SDS011;11865;45.394;10.978;2024-02-14T07:10:24;19.00;;;10.82;;
23384;SDS011;11865;45.394;10.978;2024-02-14T07:12:51;21.80;;;10.85;;
23384;SDS011;11865;45.394;10.978;2024-02-14T07:15:19;25.13;;;10.20;;
23384;SDS011;11865;45.394;10.978;2024-02-14T07:17:47;22.58;;;11.48;;
23384;SDS011;11865;45.394;10.978;2024-02-14T07:20:14;24.80;;;11.45;;
23384;SDS011;11865;45.394;10.978;2024-02-14T07:22:44;21.23;;;10.25;;
23384;SDS011;11865;45.394;10.978;2024-02-14T07:25:14;28.50;;;10.63;;
23384;SDS011;11865;45.394;10.978;2024-02-14T07:27:42;33.78;;;10.82;;
23384;SDS011;11865;45.394;10.978;2024-02-14T07:30:09;28.00;;;10.60;;
23384;SDS011;11865;45.394;10.978;2024-02-14T07:32:37;37.05;;;12.77;;
23384;SDS011;11865;45.394;10.978;2024-02-14T07:35:05;29.27;;;12.90;;
23384;SDS011;11865;45.394;10.978;2024-02-14T07:37:33;23.60;;;12.10;;
23384;SDS011;11865;45.394;10.978;2024-02-14T07:40:01;28.00;;;12.38;;
23384;SDS011;11865;45.394;10.978;2024-02-14T07:42:29;24.83;;;13.73;;
23384;SDS011;11865;45.394;10.978;2024-02-14T07:44:56;30.45;;;12.30;;
23384;SDS011;11865;45.394;10.978;2024-02-14T07:47:24;27.85;;;11.88;;
23384;SDS011;11865;45.394;10.978;2024-02-14T07:49:51;30.00;;;11.48;;
23384;SDS011;11865;45.394;10.978;2024-02-14T07:52:20;29.30;;;13.35;;
23384;SDS011;11865;45.394;10.978;2024-02-14T07:54:51;32.03;;;14.50;;
23384;SDS011;11865;45.394;10.978;2024-02-14T07:57:23;34.65;;;16.20;;
23384;SDS011;11865;45.394;10.978;2024-02-14T07:59:51;28.20;;;14.45;;
23384;SDS011;11865;45.394;10.978;2024-02-14T08:02:19;25.48;;;14.48;;
23384;SDS011;11865;45.394;10.978;2024-02-14T08:04:47;32.78;;;14.82;;
23384;SDS011;11865;45.394;10.978;2024-02-14T08:07:18;28.27;;;14.80;;
23384;SDS011;11865;45.394;10.978;2024-02-14T08:09:45;35.85;;;14.77;;
23384;SDS011;11865;45.394;10.978;2024-02-14T08:12:13;25.70;;;13.73;;
23384;SDS011;11865;45.394;10.978;2024-02-14T08:14:40;25.90;;;13.85;;
23384;SDS011;11865;45.394;10.978;2024-02-14T08:17:08;25.98;;;14.05;;
23384;SDS011;11865;45.394;10.978;2024-02-14T08:19:36;30.50;;;14.40;;
23384;SDS011;11865;45.394;10.978;2024-02-14T08:22:03;24.05;;;13.75;;
23384;SDS011;11865;45.394;10.978;2024-02-14T08:24:32;28.10;;;14.73;;
23384;SDS011;11865;45.394;10.978;2024-02-14T08:27:00;30.45;;;13.90;;
23384;SDS011;11865;45.394;10.978;2024-02-14T08:29:28;27.35;;;14.38;;
23384;SDS011;11865;45.394;10.978;2024-02-14T08:31:55;24.15;;;13.18;;
23384;SDS011;11865;45.394;10.978;2024-02-14T08:34:23;24.73;;;13.60;;
23384;SDS011;11865;45.394;10.978;2024-02-14T08:36:51;28.17;;;14.70;;
23384;SDS011;11865;45.394;10.978;2024-02-14T08:39:19;27.88;;;14.40;;
23384;SDS011;11865;45.394;10.978;2024-02-14T08:41:47;26.48;;;13.45;;
23384;SDS011;11865;45.394;10.978;2024-02-14T08:44:14;25.08;;;13.38;;
23384;SDS011;11865;45.394;10.978;2024-02-14T08:46:42;24.65;;;12.75;;
23384;SDS011;11865;45.394;10.978;2024-02-14T08:49:11;22.63;;;12.65;;
23384;SDS011;11865;45.394;10.978;2024-02-14T08:51:39;24.00;;;11.73;;
23384;SDS011;11865;45.394;10.978;2024-02-14T08:54:09;24.10;;;12.35;;
23384;SDS011;11865;45.394;10.978;2024-02-14T08:56:36;26.95;;;11.73;;
23384;SDS011;11865;45.394;10.978;2024-02-14T08:59:04;22.33;;;13.35;;
23384;SDS011;11865;45.394;10.978;2024-02-14T09:01:32;27.77;;;13.90;;
23384;SDS011;11865;45.394;10.978;2024-02-14T09:04:00;26.95;;;14.32;;
23384;SDS011;11865;45.394;10.978;2024-02-14T09:06:27;26.38;;;14.23;;
23384;SDS011;11865;45.394;10.978;2024-02-14T09:08:56;33.95;;;14.85;;
23384;SDS011;11865;45.394;10.978;2024-02-14T09:11:24;24.58;;;13.80;;
23384;SDS011;11865;45.394;10.978;2024-02-14T09:13:52;25.38;;;13.07;;
23384;SDS011;11865;45.394;10.978;2024-02-14T09:16:22;25.52;;;12.40;;
23384;SDS011;11865;45.394;10.978;2024-02-14T09:18:50;24.67;;;13.18;;
23384;SDS011;11865;45.394;10.978;2024-02-14T09:21:18;28.40;;;13.90;;
23384;SDS011;11865;45.394;10.978;2024-02-14T09:23:47;27.90;;;13.40;;
23384;SDS011;11865;45.394;10.978;2024-02-14T09:26:15;29.83;;;13.90;;
23384;SDS011;11865;45.394;10.978;2024-02-14T09:28:43;25.10;;;14.55;;
23384;SDS011;11865;45.394;10.978;2024-02-14T09:31:11;23.77;;;13.65;;
23384;SDS011;11865;45.394;10.978;2024-02-14T09:33:39;22.13;;;13.60;;
23384;SDS011;11865;45.394;10.978;2024-02-14T09:36:08;21.55;;;12.55;;
23384;SDS011;11865;45.394;10.978;2024-02-14T09:38:36;25.52;;;13.00;;
23384;SDS011;11865;45.394;10.978;2024-02-14T09:41:15;27.70;;;12.18;;
23384;SDS011;11865;45.394;10.978;2024-02-14T09:43:53;25.23;;;12.60;;
23384;SDS011;11865;45.394;10.978;2024-02-14T09:46:21;22.95;;;11.43;;
23384;SDS011;11865;45.394;10.978;2024-02-14T09:48:52;22.27;;;11.90;;
23384;SDS011;11865;45.394;10.978;2024-02-14T09:51:21;22.98;;;11.55;;
23384;SDS011;11865;45.394;10.978;2024-02-14T09:53:50;21.60;;;9.30;;
23384;SDS011;11865;45.394;10.978;2024-02-14T09:56:21;27.90;;;9.77;;
23384;SDS011;11865;45.394;10.978;2024-02-14T09:58:50;21.27;;;9.30;;
23384;SDS011;11865;45.394;10.978;2024-02-14T10:01:24;17.80;;;8.65;;
23384;SDS011;11865;45.394;10.978;2024-02-14T10:03:54;12.52;;;7.28;;
23384;SDS011;11865;45.394;10.978;2024-02-14T10:06:22;14.98;;;7.90;;
23384;SDS011;11865;45.394;10.978;2024-02-14T10:08:51;15.52;;;6.88;;
23384;SDS011;11865;45.394;10.978;2024-02-14T10:11:30;18.45;;;8.38;;
23384;SDS011;11865;45.394;10.978;2024-02-14T10:14:00;14.05;;;7.68;;
23384;SDS011;11865;45.394;10.978;2024-02-14T10:16:31;12.70;;;7.22;;
23384;SDS011;11865;45.394;10.978;2024-02-14T10:18:59;13.30;;;7.68;;
23384;SDS011;11865;45.394;10.978;2024-02-14T10:21:27;14.13;;;7.63;;
23384;SDS011;11865;45.394;10.978;2024-02-14T10:23:58;17.35;;;8.75;;
23384;SDS011;11865;45.394;10.978;2024-02-14T10:26:30;17.60;;;9.35;;
23384;SDS011;11865;45.394;10.978;2024-02-14T10:28:58;18.38;;;8.63;;
23384;SDS011;11865;45.394;10.978;2024-02-14T10:31:26;17.92;;;9.00;;
23384;SDS011;11865;45.394;10.978;2024-02-14T10:33:55;17.85;;;9.00;;
23384;SDS011;11865;45.394;10.978;2024-02-14T10:36:23;19.20;;;10.00;;
23384;SDS011;11865;45.394;10.978;2024-02-14T10:38:51;24.95;;;10.73;;
23384;SDS011;11865;45.394;10.978;2024-02-14T10:41:20;16.75;;;9.30;;
23384;SDS011;11865;45.394;10.978;2024-02-14T10:43:48;14.60;;;7.97;;
23384;SDS011;11865;45.394;10.978;2024-02-14T10:46:19;19.73;;;8.88;;
23384;SDS011;11865;45.394;10.978;2024-02-14T10:48:51;14.82;;;8.82;;
23384;SDS011;11865;45.394;10.978;2024-02-14T10:51:21;14.68;;;8.80;;
23384;SDS011;11865;45.394;10.978;2024-02-14T10:53:49;16.48;;;8.77;;
23384;SDS011;11865;45.394;10.978;2024-02-14T10:56:20;16.17;;;8.48;;
23384;SDS011;11865;45.394;10.978;2024-02-14T10:58:48;15.30;;;9.10;;
23384;SDS011;11865;45.394;10.978;2024-02-14T11:01:19;17.70;;;8.77;;
23384;SDS011;11865;45.394;10.978;2024-02-14T11:03:47;17.35;;;8.65;;
23384;SDS011;11865;45.394;10.978;2024-02-14T11:06:16;14.70;;;8.65;;
23384;SDS011;11865;45.394;10.978;2024-02-14T11:08:57;13.48;;;7.95;;
23384;SDS011;11865;45.394;10.978;2024-02-14T11:13:56;18.40;;;8.57;;
23384;SDS011;11865;45.394;10.978;2024-02-14T11:16:27;26.20;;;12.35;;
23384;SDS011;11865;45.394;10.978;2024-02-14T11:19:08;21.15;;;9.50;;
23384;SDS011;11865;45.394;10.978;2024-02-14T11:21:45;19.23;;;8.70;;
23384;SDS011;11865;45.394;10.978;2024-02-14T11:24:14;16.83;;;9.60;;
23384;SDS011;11865;45.394;10.978;2024-02-14T11:26:46;18.10;;;9.20;;
23384;SDS011;11865;45.394;10.978;2024-02-14T11:29:28;13.10;;;9.25;;
23384;SDS011;11865;45.394;10.978;2024-02-14T11:31:59;19.42;;;9.70;;
23384;SDS011;11865;45.394;10.978;2024-02-14T11:34:29;18.83;;;9.98;;
23384;SDS011;11865;45.394;10.978;2024-02-14T11:37:04;16.73;;;10.13;;
23384;SDS011;11865;45.394;10.978;2024-02-14T11:39:35;20.13;;;10.00;;
23384;SDS011;11865;45.394;10.978;2024-02-14T11:42:03;28.98;;;11.70;;
23384;SDS011;11865;45.394;10.978;2024-02-14T11:44:31;15.40;;;10.25;;
23384;SDS011;11865;45.394;10.978;2024-02-14T11:46:59;17.92;;;10.15;;
23384;SDS011;11865;45.394;10.978;2024-02-14T11:49:27;19.35;;;10.07;;
23384;SDS011;11865;45.394;10.978;2024-02-14T11:51:55;18.70;;;10.68;;
23384;SDS011;11865;45.394;10.978;2024-02-14T11:54:23;17.25;;;9.25;;
23384;SDS011;11865;45.394;10.978;2024-02-14T11:56:51;16.02;;;10.30;;
23384;SDS011;11865;45.394;10.978;2024-02-14T11:59:19;16.10;;;11.18;;
23384;SDS011;11865;45.394;10.978;2024-02-14T12:01:47;15.95;;;9.48;;
23384;SDS011;11865;45.394;10.978;2024-02-14T12:04:15;16.52;;;9.82;;
23384;SDS011;11865;45.394;10.978;2024-02-14T12:06:44;18.17;;;10.63;;
23384;SDS011;11865;45.394;10.978;2024-02-14T12:09:12;17.65;;;10.52;;
23384;SDS011;11865;45.394;10.978;2024-02-14T12:11:41;16.52;;;11.77;;
23384;SDS011;11865;45.394;10.978;2024-02-14T12:14:13;17.42;;;11.20;;
23384;SDS011;11865;45.394;10.978;2024-02-14T12:16:41;16.60;;;10.50;;
23384;SDS011;11865;45.394;10.978;2024-02-14T12:19:13;18.33;;;10.57;;
23384;SDS011;11865;45.394;10.978;2024-02-14T12:21:43;19.25;;;11.23;;
23384;SDS011;11865;45.394;10.978;2024-02-14T12:24:12;18.08;;;11.13;;
23384;SDS011;11865;45.394;10.978;2024-02-14T12:26:42;22.83;;;10.63;;
23384;SDS011;11865;45.394;10.978;2024-02-14T12:29:13;17.08;;;11.23;;
23384;SDS011;11865;45.394;10.978;2024-02-14T12:31:41;20.15;;;11.15;;
23384;SDS011;11865;45.394;10.978;2024-02-14T12:34:11;20.45;;;11.82;;
23384;SDS011;11865;45.394;10.978;2024-02-14T12:36:40;20.35;;;11.95;;
23384;SDS011;11865;45.394;10.978;2024-02-14T12:39:07;17.10;;;10.27;;
23384;SDS011;11865;45.394;10.978;2024-02-14T12:41:39;18.50;;;11.05;;
23384;SDS011;11865;45.394;10.978;2024-02-14T12:44:07;20.58;;;11.43;;
23384;SDS011;11865;45.394;10.978;2024-02-14T12:46:35;19.08;;;11.35;;
23384;SDS011;11865;45.394;10.978;2024-02-14T12:49:05;17.60;;;11.30;;
23384;SDS011;11865;45.394;10.978;2024-02-14T12:51:33;16.85;;;10.55;;
23384;SDS011;11865;45.394;10.978;2024-02-14T12:54:05;17.95;;;11.57;;
23384;SDS011;11865;45.394;10.978;2024-02-14T12:56:34;22.52;;;13.15;;
23384;SDS011;11865;45.394;10.978;2024-02-14T12:59:02;17.90;;;11.70;;
23384;SDS011;11865;45.394;10.978;2024-02-14T13:01:29;18.15;;;11.73;;
23384;SDS011;11865;45.394;10.978;2024-02-14T13:03:57;17.83;;;11.55;;
23384;SDS011;11865;45.394;10.978;2024-02-14T13:06:26;19.40;;;11.40;;
23384;SDS011;11865;45.394;10.978;2024-02-14T13:08:54;20.77;;;12.65;;
23384;SDS011;11865;45.394;10.978;2024-02-14T13:11:22;25.05;;;12.73;;
23384;SDS011;11865;45.394;10.978;2024-02-14T13:13:50;19.55;;;12.05;;
23384;SDS011;11865;45.394;10.978;2024-02-14T13:16:17;18.60;;;11.68;;
23384;SDS011;11865;45.394;10.978;2024-02-14T13:18:45;17.17;;;10.95;;
23384;SDS011;11865;45.394;10.978;2024-02-14T13:21:13;21.10;;;12.60;;
23384;SDS011;11865;45.394;10.978;2024-02-14T13:23:41;21.45;;;12.43;;
23384;SDS011;11865;45.394;10.978;2024-02-14T13:26:08;19.08;;;11.90;;
23384;SDS011;11865;45.394;10.978;2024-02-14T13:28:36;19.45;;;12.65;;
23384;SDS011;11865;45.394;10.978;2024-02-14T13:31:03;22.08;;;12.30;;
23384;SDS011;11865;45.394;10.978;2024-02-14T13:33:31;22.92;;;13.02;;
23384;SDS011;11865;45.394;10.978;2024-02-14T13:35:59;26.92;;;14.00;;
23384;SDS011;11865;45.394;10.978;2024-02-14T13:38:26;24.38;;;13.45;;
23384;SDS011;11865;45.394;10.978;2024-02-14T13:40:57;20.67;;;14.00;;
23384;SDS011;11865;45.394;10.978;2024-02-14T13:43:25;26.13;;;13.48;;
23384;SDS011;11865;45.394;10.978;2024-02-14T13:45:52;23.85;;;13.75;;
23384;SDS011;11865;45.394;10.978;2024-02-14T13:48:21;24.85;;;13.95;;
23384;SDS011;11865;45.394;10.978;2024-02-14T13:50:49;22.73;;;13.55;;
23384;SDS011;11865;45.394;10.978;2024-02-14T13:53:16;25.08;;;15.13;;
23384;SDS011;11865;45.394;10.978;2024-02-14T13:55:44;26.27;;;14.75;;
23384;SDS011;11865;45.394;10.978;2024-02-14T13:58:11;23.48;;;14.80;;
23384;SDS011;11865;45.394;10.978;2024-02-14T14:00:43;27.02;;;15.52;;
23384;SDS011;11865;45.394;10.978;2024-02-14T14:03:11;32.35;;;16.10;;
23384;SDS011;11865;45.394;10.978;2024-02-14T14:05:39;22.63;;;15.07;;
23384;SDS011;11865;45.394;10.978;2024-02-14T14:08:07;30.65;;;16.48;;
23384;SDS011;11865;45.394;10.978;2024-02-14T14:10:35;30.30;;;15.88;;
23384;SDS011;11865;45.394;10.978;2024-02-14T14:13:02;25.38;;;14.90;;
23384;SDS011;11865;45.394;10.978;2024-02-14T14:15:30;28.58;;;17.00;;
23384;SDS011;11865;45.394;10.978;2024-02-14T14:17:59;22.15;;;15.18;;
23384;SDS011;11865;45.394;10.978;2024-02-14T14:20:27;30.00;;;16.58;;